Time;durP1;ratioP1;P1;durP2;ratioP2;P2;SDS_P1;SDS_P2;PMS_P1;PMS_P2;Temp;Humidity;BMP_temperature;BMP_pressure;BME280_temperature;BME280_humidity;BME280_pressure;Samples;Min_cycle;Max_cycle;Signal;HPM_P1;HPM_P2
2023/01/09 00:00:55;;;;;;;;;97.00;70.75;;;;;3.24;97.43;97418.06;4990423;27;102294;-70
2023/01/09 00:03:24;;;;;;;;;83.00;62.00;;;;;3.30;97.79;97421.81;4974067;28;103231;-70
2023/01/09 00:05:51;;;;;;;;;87.50;65.00;;;;;3.24;97.62;97401.22;4975116;28;104023;-70
2023/01/09 00:08:18;;;;;;;;;98.00;78.00;;;;;3.15;97.30;97397.81;4978075;28;102674;-70
2023/01/09 00:10:48;;;;;;;;;91.75;67.00;;;;;3.08;96.86;97402.19;4977703;27;102465;-69
2023/01/09 00:13:16;;;;;;;;;88.25;67.50;;;;;2.93;97.59;97388.84;4984615;27;102187;-70
2023/01/09 00:15:44;;;;;;;;;83.67;62.00;;;;;2.72;98.37;97359.38;4980575;28;109963;-69
2023/01/09 00:18:11;;;;;;;;;70.00;52.00;;;;;2.97;98.06;97400.00;4980684;27;102463;-69
2023/01/09 00:20:38;;;;;;;;;51.33;41.33;;;;;2.90;97.29;97393.72;4984004;27;101935;-69
2023/01/09 00:23:05;;;;;;;;;44.33;35.33;;;;;2.89;96.27;97403.56;4978177;27;102156;-69
2023/01/09 00:25:32;;;;;;;;;28.67;24.33;;;;;2.87;95.76;97405.59;4987302;27;103770;-70
2023/01/09 00:27:59;;;;;;;;;35.75;29.25;;;;;2.84;95.93;97405.13;4963976;28;102204;-69
2023/01/09 00:30:26;;;;;;;;;37.67;32.67;;;;;2.79;97.17;97404.84;4981223;28;102436;-69
2023/01/09 00:32:54;;;;;;;;;48.33;38.33;;;;;2.78;97.39;97404.03;4984682;28;102371;-69
2023/01/09 00:35:24;;;;;;;;;32.00;28.25;;;;;2.73;97.19;97413.56;4987354;27;103961;-70
2023/01/09 00:37:50;;;;;;;;;67.33;50.00;;;;;2.58;96.19;97417.03;4968158;27;102587;-70
2023/01/09 00:40:18;;;;;;;;;86.33;60.00;;;;;2.26;97.67;97374.63;4987810;27;102223;-70
2023/01/09 00:42:51;;;;;;;;;66.67;52.67;;;;;2.37;97.60;97408.88;4988767;27;102323;-68
2023/01/09 00:45:27;;;;;;;;;69.33;54.00;;;;;2.26;98.64;97395.94;4978968;27;108530;-69
2023/01/09 00:48:02;;;;;;;;;71.67;56.33;;;;;2.01;97.27;97405.16;4984848;28;102038;-69
2023/01/09 00:50:32;;;;;;;;;60.33;46.33;;;;;1.94;97.15;97407.66;4974077;28;102117;-69
2023/01/09 00:53:05;;;;;;;;;44.00;38.33;;;;;1.93;97.41;97413.19;4990129;27;102035;-68
2023/01/09 00:55:34;;;;;;;;;78.33;59.00;;;;;1.82;99.14;97408.25;4980596;27;104005;-69
2023/01/09 00:58:01;;;;;;;;;54.33;39.67;;;;;1.73;98.85;97397.66;4977197;27;102751;-69
2023/01/09 01:00:28;;;;;;;;;77.50;57.50;;;;;1.68;99.03;97386.69;4985291;28;102063;-69
2023/01/09 01:02:56;;;;;;;;;75.67;58.00;;;;;1.58;99.10;97386.06;4985153;27;101988;-69
2023/01/09 01:08:17;;;;;;;;;75.00;56.33;;;;;1.31;99.45;97346.59;4984975;27;102582;-70
2023/01/09 01:10:47;;;;;;;;;72.67;54.00;;;;;1.52;99.88;97380.63;4984610;27;102017;-69
2023/01/09 01:13:15;;;;;;;;;66.00;45.67;;;;;1.56;99.36;97382.75;4990925;27;102373;-69
2023/01/09 01:15:44;;;;;;;;;62.00;47.33;;;;;1.57;99.81;97379.09;4985168;27;103977;-69
2023/01/09 01:18:12;;;;;;;;;48.67;40.00;;;;;1.57;99.40;97373.78;4979063;27;102054;-70
2023/01/09 01:20:43;;;;;;;;;45.33;39.33;;;;;1.56;98.87;97372.09;4977347;27;102044;-70
2023/01/09 01:23:10;;;;;;;;;72.33;52.00;;;;;1.53;99.54;97375.09;4980116;28;102420;-69
2023/01/09 01:25:39;;;;;;;;;80.67;60.33;;;;;1.52;100.00;97361.97;4976521;27;104017;-69
2023/01/09 01:28:07;;;;;;;;;86.50;63.75;;;;;1.19;100.00;97321.34;4987452;27;102200;-69
2023/01/09 01:30:39;;;;;;;;;88.00;66.25;;;;;1.35;99.84;97353.25;4979812;28;101831;-70
2023/01/09 01:33:07;;;;;;;;;72.00;50.67;;;;;1.25;100.00;97334.00;4972789;27;102180;-70
2023/01/09 01:35:34;;;;;;;;;69.67;52.67;;;;;1.40;100.00;97361.53;4977555;28;104061;-69
2023/01/09 01:38:02;;;;;;;;;37.00;27.00;;;;;1.37;100.00;97351.22;4978735;28;102295;-70
2023/01/09 01:40:29;;;;;;;;;30.67;28.00;;;;;1.49;100.00;97364.97;4973136;27;102411;-69
2023/01/09 01:42:57;;;;;;;;;38.67;31.00;;;;;1.25;100.00;97326.00;4978060;28;102155;-69
2023/01/09 01:45:29;;;;;;;;;38.67;28.67;;;;;1.52;100.00;97377.97;4980215;27;103415;-69
2023/01/09 01:48:10;;;;;;;;;24.00;18.00;;;;;1.53;100.00;97366.31;4977361;28;102308;-69
2023/01/09 01:50:45;;;;;;;;;24.00;14.50;;;;;1.58;100.00;97372.75;4978139;27;102267;-70
2023/01/09 01:53:20;;;;;;;;;20.00;12.75;;;;;1.58;100.00;97372.75;4978170;28;103080;-69
2023/01/09 01:56:02;;;;;;;;;40.00;33.00;;;;;1.56;99.75;97372.09;4973275;28;108624;-69
2023/01/09 01:58:33;;;;;;;;;82.25;61.50;;;;;1.34;98.96;97367.56;4972443;27;102168;-69
2023/01/09 02:01:01;;;;;;;;;70.33;53.00;;;;;1.23;99.30;97344.81;4984899;28;102021;-70
2023/01/09 02:03:28;;;;;;;;;54.00;39.67;;;;;1.31;99.96;97354.56;4964373;28;102049;-70
2023/01/09 02:05:55;;;;;;;;;42.00;36.67;;;;;1.39;99.66;97361.72;4978078;28;103895;-68
2023/01/09 02:08:29;;;;;;;;;77.00;57.00;;;;;1.19;99.13;97345.31;4978871;28;102515;-70
2023/01/09 02:11:13;;;;;;;;;65.67;45.00;;;;;1.23;99.96;97347.47;4974183;28;102374;-70
2023/01/09 02:14:00;;;;;;;;;59.33;44.67;;;;;1.18;99.80;97335.66;4982726;27;102362;-69
2023/01/09 02:17:13;;;;;;;;;72.67;52.33;;;;;1.12;100.00;97331.88;4980487;27;108738;-68
2023/01/09 02:20:00;;;;;;;;;72.67;53.33;;;;;1.04;99.37;97333.72;4967701;28;102456;-69
2023/01/09 02:23:20;;;;;;;;;70.33;55.00;;;;;1.08;100.00;97343.06;4969434;28;102436;-69
2023/01/09 02:26:25;;;;;;;;;75.67;55.33;;;;;1.07;100.00;97334.22;4977030;27;102428;-70
2023/01/09 02:29:34;;;;;;;;;67.33;48.33;;;;;1.09;100.00;97340.19;4985501;28;107549;-69
2023/01/09 02:32:24;;;;;;;;;75.25;59.00;;;;;1.02;100.00;97347.22;4975771;27;102414;-70
2023/01/09 02:35:03;;;;;;;;;67.33;49.67;;;;;1.00;99.71;97348.38;4985058;27;104252;-70
2023/01/09 02:37:38;;;;;;;;;50.00;39.00;;;;;0.97;99.77;97343.41;4977749;27;102415;-69
2023/01/09 02:40:39;;;;;;;;;61.33;46.33;;;;;0.83;98.52;97348.44;4971567;28;103985;-69
2023/01/09 02:43:08;;;;;;;;;43.33;36.33;;;;;0.71;98.41;97333.84;4983939;27;102782;-69
2023/01/09 02:45:35;;;;;;;;;72.00;51.33;;;;;0.72;99.00;97343.47;4985230;27;102052;-70
2023/01/09 02:48:02;;;;;;;;;72.33;50.67;;;;;0.66;99.01;97346.84;4982300;27;101965;-69
2023/01/09 02:51:14;;;;;;;;;48.00;42.33;;;;;0.71;99.99;97339.19;4980423;28;104154;-69
2023/01/09 02:54:13;;;;;;;;;40.33;33.67;;;;;0.73;100.00;97334.50;4982174;27;102465;-70
2023/01/09 02:57:01;;;;;;;;;39.67;27.00;;;;;0.74;99.50;97328.19;4978611;27;101957;-68
2023/01/09 02:59:35;;;;;;;;;35.33;27.67;;;;;0.63;99.02;97335.72;4973084;27;102540;-70
2023/01/09 03:02:14;;;;;;;;;66.33;50.67;;;;;0.51;98.74;97329.91;4984371;27;103987;-70
2023/01/09 03:04:57;;;;;;;;;88.25;62.00;;;;;0.34;99.47;97333.59;4977753;28;102503;-70
2023/01/09 03:07:36;;;;;;;;;84.75;64.25;;;;;0.23;100.00;97333.94;4982830;27;102499;-70
2023/01/09 03:10:13;;;;;;;;;67.00;54.00;;;;;0.27;100.00;97336.09;4978983;27;102173;-70
2023/01/09 03:12:42;;;;;;;;;79.00;58.50;;;;;0.21;100.00;97312.84;4976811;27;103929;-70
2023/01/09 03:15:13;;;;;;;;;87.25;64.25;;;;;0.20;100.00;97310.34;4985541;28;102377;-70
2023/01/09 03:17:45;;;;;;;;;82.00;59.75;;;;;0.34;100.00;97317.66;4984527;27;102149;-69
2023/01/09 03:20:17;;;;;;;;;86.75;64.00;;;;;0.28;100.00;97320.97;4985047;27;102166;-70
2023/01/09 03:22:51;;;;;;;;;85.25;64.25;;;;;0.23;100.00;97310.00;4988115;27;103988;-69
2023/01/09 03:25:19;;;;;;;;;75.00;57.00;;;;;0.24;100.00;97309.00;4980921;28;102632;-70
2023/01/09 03:27:46;;;;;;;;;98.50;76.00;;;;;0.26;100.00;97301.72;4975007;28;102255;-70
2023/01/09 03:30:13;;;;;;;;;92.00;67.75;;;;;0.18;100.00;97307.03;4989300;28;102352;-69
2023/01/09 03:32:40;;;;;;;;;83.50;62.25;;;;;0.15;100.00;97289.59;4983426;27;103972;-69
2023/01/09 03:35:07;;;;;;;;;79.75;60.00;;;;;0.15;100.00;97294.91;4975336;28;102556;-69
2023/01/09 03:37:34;;;;;;;;;81.75;60.50;;;;;0.12;100.00;97276.66;4982150;27;102267;-70
2023/01/09 03:40:01;;;;;;;;;97.25;70.75;;;;;-0.16;100.00;97243.47;4982679;27;102291;-69
2023/01/09 03:42:28;;;;;;;;;88.75;62.00;;;;;0.10;100.00;97246.75;4984190;27;103982;-70
2023/01/09 03:44:55;;;;;;;;;72.33;55.33;;;;;0.17;100.00;97253.06;4984979;28;102267;-70
2023/01/09 03:47:22;;;;;;;;;68.00;52.67;;;;;0.19;100.00;97247.56;4978407;27;102359;-70
2023/01/09 03:49:49;;;;;;;;;66.00;46.67;;;;;0.27;100.00;97245.72;4978498;28;102079;-69
2023/01/09 03:52:16;;;;;;;;;74.67;52.00;;;;;0.30;100.00;97241.91;4983218;27;104103;-70
2023/01/09 03:54:42;;;;;;;;;60.67;46.67;;;;;0.33;100.00;97230.91;4986999;27;102348;-71
2023/01/09 03:57:10;;;;;;;;;65.67;50.00;;;;;0.35;100.00;97231.59;4981366;27;102102;-69
2023/01/09 03:59:37;;;;;;;;;70.67;55.67;;;;;0.37;100.00;97232.22;4984544;27;102504;-69
2023/01/09 04:02:03;;;;;;;;;77.00;56.50;;;;;0.37;100.00;97219.75;4970468;27;103985;-69
2023/01/09 04:04:31;;;;;;;;;75.00;56.50;;;;;0.40;100.00;97219.44;4978787;28;102650;-70
2023/01/09 04:06:57;;;;;;;;;59.33;42.67;;;;;0.48;100.00;97215.09;4958628;27;102386;-70
2023/01/09 04:09:25;;;;;;;;;82.00;59.75;;;;;0.50;100.00;97213.06;4988192;27;102188;-70
2023/01/09 04:11:52;;;;;;;;;83.00;62.25;;;;;0.50;100.00;97207.75;4986112;27;109223;-70
2023/01/09 04:14:19;;;;;;;;;86.75;64.00;;;;;0.34;100.00;97214.81;4979969;27;103027;-69
2023/01/09 04:16:46;;;;;;;;;81.00;55.75;;;;;0.39;100.00;97215.13;4980134;27;102413;-70
2023/01/09 04:19:13;;;;;;;;;61.67;51.00;;;;;0.40;100.00;97211.47;4986226;28;102088;-70
2023/01/09 04:21:39;;;;;;;;;64.33;44.67;;;;;0.45;100.00;97203.78;4980453;27;104093;-70
2023/01/09 04:24:07;;;;;;;;;57.33;43.33;;;;;0.46;100.00;97204.59;4969255;28;102521;-69
2023/01/09 04:26:34;;;;;;;;;76.50;59.00;;;;;0.36;100.00;97185.41;4981830;28;102299;-70
2023/01/09 04:29:01;;;;;;;;;88.50;64.00;;;;;0.42;100.00;97195.31;4972961;28;102312;-70
2023/01/09 04:31:28;;;;;;;;;86.25;64.25;;;;;0.42;100.00;97197.97;4972668;27;103978;-70
2023/01/09 04:33:55;;;;;;;;;63.67;46.67;;;;;0.49;100.00;97196.31;4968699;28;102465;-69
2023/01/09 04:36:22;;;;;;;;;68.00;53.67;;;;;0.46;100.00;97201.94;4975210;28;102444;-70
2023/01/09 04:38:49;;;;;;;;;98.00;70.25;;;;;0.25;100.00;97191.91;4978840;28;102361;-74
2023/01/09 04:41:47;;;;;;;;;84.25;60.00;;;;;0.23;100.00;97190.41;4978113;27;103999;-69
2023/01/09 04:44:04;;;;;;;;;86.50;66.00;;;;;0.24;100.00;97178.78;4979489;28;102373;-70
2023/01/09 04:46:31;;;;;;;;;76.00;58.75;;;;;0.28;100.00;97172.94;4981273;27;102205;-70
2023/01/09 04:48:58;;;;;;;;;68.00;49.00;;;;;0.34;100.00;97176.75;4980658;28;101996;-70
2023/01/09 04:51:25;;;;;;;;;54.00;43.33;;;;;0.43;100.00;97183.69;4985811;28;104066;-69
2023/01/09 04:53:52;;;;;;;;;48.67;40.67;;;;;0.44;100.00;97178.22;4981244;27;104064;-70
2023/01/09 04:56:19;;;;;;;;;55.00;44.33;;;;;0.49;100.00;97180.34;4979160;27;101982;-70
2023/01/09 04:58:45;;;;;;;;;32.33;28.00;;;;;0.54;100.00;97170.00;4980073;27;101937;-70
2023/01/09 05:01:12;;;;;;;;;28.00;26.67;;;;;0.65;100.00;97174.13;4972223;27;103602;-70
2023/01/09 05:03:39;;;;;;;;;64.33;47.00;;;;;0.59;100.00;97172.13;4986093;27;102868;-70
2023/01/09 05:06:07;;;;;;;;;89.25;67.75;;;;;0.29;100.00;97169.28;4987967;27;102023;-69
2023/01/09 05:08:34;;;;;;;;;93.25;67.75;;;;;0.36;100.00;97158.81;4972752;27;102574;-71
2023/01/09 05:11:00;;;;;;;;;83.25;60.00;;;;;0.49;100.00;97159.09;4978719;28;103999;-70
2023/01/09 05:13:27;;;;;;;;;83.75;64.25;;;;;0.68;100.00;97153.31;4976612;27;102284;-70
2023/01/09 05:15:54;;;;;;;;;82.00;57.75;;;;;0.75;100.00;97158.78;4982136;28;102179;-70
2023/01/09 05:18:21;;;;;;;;;83.00;60.00;;;;;0.80;100.00;97153.75;4976842;27;102959;-69
2023/01/09 05:20:48;;;;;;;;;80.50;58.75;;;;;0.87;100.00;97144.06;4969697;28;104082;-69
2023/01/09 05:23:15;;;;;;;;;83.00;63.50;;;;;0.97;100.00;97152.66;4983719;27;102359;-71
2023/01/09 05:25:42;;;;;;;;;74.00;58.33;;;;;1.08;100.00;97154.88;4983359;28;102105;-69
2023/01/09 05:28:09;;;;;;;;;87.00;61.50;;;;;1.13;100.00;97151.69;4978788;28;102217;-70
2023/01/09 05:30:36;;;;;;;;;97.75;72.50;;;;;1.04;100.00;97148.25;4973727;27;104078;-70
2023/01/09 05:33:03;;;;;;;;;86.25;65.00;;;;;1.11;100.00;97140.41;4978415;28;102340;-69
2023/01/09 05:35:30;;;;;;;;;76.00;57.50;;;;;1.03;100.00;97122.69;4975055;27;102150;-69
2023/01/09 05:37:57;;;;;;;;;78.00;58.00;;;;;1.21;100.00;97135.69;4978627;28;102905;-67
2023/01/09 05:40:24;;;;;;;;;73.67;56.33;;;;;1.24;100.00;97132.66;4973397;28;104021;-70
2023/01/09 05:42:57;;;;;;;;;64.33;49.00;;;;;1.28;100.00;97133.94;4978504;27;102503;-69
2023/01/09 05:45:26;;;;;;;;;59.00;44.33;;;;;1.23;100.00;97115.03;4985891;27;102210;-69
2023/01/09 05:47:53;;;;;;;;;49.67;36.00;;;;;1.24;100.00;97106.03;4984207;27;102114;-70
2023/01/09 05:50:20;;;;;;;;;65.67;48.33;;;;;1.28;100.00;97120.63;4977159;27;103956;-70
2023/01/09 05:52:47;;;;;;;;;62.33;47.33;;;;;1.32;100.00;97119.28;4979033;28;102211;-70
2023/01/09 05:55:14;;;;;;;;;56.33;44.00;;;;;1.34;100.00;97117.28;4978480;27;101965;-70
2023/01/09 05:57:41;;;;;;;;;45.67;38.00;;;;;1.39;100.00;97119.41;4976664;28;102364;-69
2023/01/09 06:00:08;;;;;;;;;66.00;50.33;;;;;1.38;100.00;97113.25;4980000;27;104041;-70
2023/01/09 06:02:35;;;;;;;;;52.67;40.00;;;;;1.47;100.00;97106.81;4979833;27;102021;-70
2023/01/09 06:05:03;;;;;;;;;40.00;27.33;;;;;1.46;100.00;97089.19;4976783;27;102165;-70
2023/01/09 06:07:30;;;;;;;;;33.33;27.33;;;;;1.62;100.00;97110.31;4979862;27;102593;-70
2023/01/09 06:09:57;;;;;;;;;21.00;17.33;;;;;1.61;100.00;97095.38;4971124;27;104045;-71
2023/01/09 06:12:24;;;;;;;;;20.75;17.25;;;;;1.73;100.00;97106.41;4977301;27;103590;-70
2023/01/09 06:14:51;;;;;;;;;66.00;50.00;;;;;1.78;100.00;97110.19;4966033;27;102291;-70
2023/01/09 06:17:18;;;;;;;;;60.33;49.00;;;;;1.85;100.00;97104.94;4974702;27;102332;-70
2023/01/09 06:19:45;;;;;;;;;51.00;40.33;;;;;1.89;100.00;97094.75;4973857;27;104115;-70
2023/01/09 06:22:14;;;;;;;;;43.33;36.33;;;;;1.96;99.73;97093.00;4980022;27;102154;-70
2023/01/09 06:24:41;;;;;;;;;42.67;32.33;;;;;1.99;99.56;97098.78;4971551;27;102129;-69
2023/01/09 06:27:08;;;;;;;;;29.67;26.00;;;;;2.04;99.89;97087.56;4985944;27;102283;-69
2023/01/09 06:29:35;;;;;;;;;23.00;19.25;;;;;2.06;99.03;97094.38;4983076;27;104152;-70
2023/01/09 06:32:02;;;;;;;;;23.00;19.75;;;;;2.14;99.22;97096.13;4990805;27;102113;-69
2023/01/09 06:34:29;;;;;;;;;21.00;18.50;;;;;2.17;99.04;97103.72;4986180;27;102246;-68
2023/01/09 06:36:56;;;;;;;;;20.25;17.25;;;;;2.26;99.11;97107.94;4996245;27;102528;-69
2023/01/09 06:39:23;;;;;;;;;21.75;16.75;;;;;2.29;99.46;97096.94;4986624;27;108790;-69
2023/01/09 06:41:50;;;;;;;;;27.67;25.67;;;;;2.31;99.00;97108.22;4974284;27;102378;-70
2023/01/09 06:44:17;;;;;;;;;23.25;22.25;;;;;2.39;99.18;97107.28;4975430;27;102944;-70
2023/01/09 06:46:44;;;;;;;;;20.25;15.75;;;;;2.40;99.55;97099.09;4980213;27;102067;-69
2023/01/09 06:49:11;;;;;;;;;19.75;14.00;;;;;2.47;99.10;97096.53;4977986;27;104030;-70
2023/01/09 06:51:37;;;;;;;;;14.25;11.00;;;;;2.51;99.64;97093.31;4962266;28;106199;-69
2023/01/09 06:54:04;;;;;;;;;11.75;9.50;;;;;2.59;99.33;97103.03;4990552;27;102156;-70
2023/01/09 06:56:31;;;;;;;;;14.75;11.75;;;;;2.62;98.75;97107.97;4992934;27;102466;-70
2023/01/09 06:59:00;;;;;;;;;18.25;13.75;;;;;2.68;98.78;97105.41;4987299;27;104058;-70
2023/01/09 07:01:26;;;;;;;;;23.25;18.50;;;;;2.65;99.00;97095.13;4991595;27;101986;-70
2023/01/09 07:03:53;;;;;;;;;37.25;27.00;;;;;2.74;99.74;97116.34;4984100;27;102383;-69
2023/01/09 07:06:21;;;;;;;;;24.25;14.75;;;;;2.79;99.54;97100.59;4982368;27;102542;-69
2023/01/09 07:08:48;;;;;;;;;60.33;45.00;;;;;2.70;97.84;97105.22;4982274;27;104320;-70
2023/01/09 07:11:14;;;;;;;;;59.00;45.67;;;;;2.65;99.29;97105.78;4987763;27;102095;-70
2023/01/09 07:13:41;;;;;;;;;70.33;53.33;;;;;2.63;99.03;97110.47;4981810;27;102135;-70
2023/01/09 07:16:08;;;;;;;;;82.00;59.00;;;;;2.62;99.83;97114.16;4979729;27;101958;-70
2023/01/09 07:18:36;;;;;;;;;83.67;62.33;;;;;2.52;99.03;97112.81;4979340;28;104020;-70
2023/01/09 07:21:05;;;;;;;;;81.33;61.00;;;;;2.53;99.88;97111.78;4998473;27;102427;-69
2023/01/09 07:23:33;;;;;;;;;79.00;57.00;;;;;2.65;100.00;97119.13;5004463;27;101920;-70
2023/01/09 07:26:00;;;;;;;;;40.67;37.67;;;;;2.76;99.58;97115.13;5010003;27;102525;-70
2023/01/09 07:28:27;;;;;;;;;47.67;37.33;;;;;2.82;100.00;97125.06;5006480;27;104076;-70
2023/01/09 07:30:54;;;;;;;;;38.33;31.67;;;;;2.87;98.89;97119.97;5003010;27;101889;-69
2023/01/09 07:33:21;;;;;;;;;27.00;24.00;;;;;2.92;98.90;97117.56;5005965;27;101908;-69
2023/01/09 07:35:50;;;;;;;;;34.33;28.33;;;;;2.96;99.19;97120.69;5008523;27;109932;-70
2023/01/09 07:38:17;;;;;;;;;32.00;27.25;;;;;2.98;99.36;97113.28;5000773;27;103944;-70
2023/01/09 07:40:44;;;;;;;;;56.67;45.00;;;;;2.98;99.56;97115.97;5007829;27;102165;-70
2023/01/09 07:43:11;;;;;;;;;81.33;60.67;;;;;2.83;100.00;97101.88;5002846;27;102268;-70
2023/01/09 07:45:38;;;;;;;;;95.75;68.25;;;;;2.96;100.00;97105.50;5001320;27;105481;-70
2023/01/09 07:48:05;;;;;;;;;84.33;64.00;;;;;3.04;100.00;97115.22;5001187;27;103639;-70
2023/01/09 07:50:32;;;;;;;;;72.00;54.00;;;;;3.15;100.00;97120.06;4989601;27;102563;-71
2023/01/09 07:52:59;;;;;;;;;61.67;47.00;;;;;3.27;100.00;97123.03;5010605;27;101969;-71
2023/01/09 07:55:26;;;;;;;;;60.00;46.67;;;;;3.32;100.00;97120.63;5005704;27;102268;-70
2023/01/09 07:57:53;;;;;;;;;79.33;56.33;;;;;3.39;100.00;97116.16;5007295;27;108478;-70
2023/01/09 08:00:20;;;;;;;;;63.00;50.67;;;;;3.51;100.00;97106.63;5002543;27;102087;-71
2023/01/09 08:02:52;;;;;;;;;61.33;44.67;;;;;3.75;100.00;97116.88;5010497;27;102202;-70
2023/01/09 08:05:20;;;;;;;;;37.00;33.00;;;;;3.96;100.00;97108.78;5004250;27;102356;-70
2023/01/09 08:07:49;;;;;;;;;26.25;23.75;;;;;4.04;100.00;97089.09;5008958;27;104019;-69
2023/01/09 08:10:19;;;;;;;;;33.50;26.50;;;;;4.23;100.00;97098.25;5005240;27;102056;-70
2023/01/09 08:12:47;;;;;;;;;30.25;23.75;;;;;4.30;100.00;97073.19;5007846;27;102442;-70
2023/01/09 08:15:15;;;;;;;;;25.00;22.00;;;;;4.47;100.00;97085.19;5005105;27;101952;-71
2023/01/09 08:17:43;;;;;;;;;22.25;16.50;;;;;4.56;100.00;97076.97;5000070;27;103998;-70
2023/01/09 08:20:12;;;;;;;;;19.50;18.75;;;;;4.67;100.00;97073.72;5004691;27;102436;-71
2023/01/09 08:22:48;;;;;;;;;28.75;21.75;;;;;4.70;100.00;97079.50;5000034;27;102055;-70
2023/01/09 08:25:17;;;;;;;;;21.75;19.75;;;;;4.72;100.00;97055.22;4998907;27;102234;-69
2023/01/09 08:27:44;;;;;;;;;21.50;18.75;;;;;4.93;100.00;97071.13;5004519;27;104026;-71
2023/01/09 08:30:12;;;;;;;;;23.50;19.75;;;;;4.90;100.00;97052.78;5003485;27;102188;-70
2023/01/09 08:32:40;;;;;;;;;19.50;16.25;;;;;5.11;100.00;97065.16;5003276;27;102444;-70
2023/01/09 08:35:08;;;;;;;;;18.00;16.25;;;;;5.21;99.95;97070.94;5001017;27;103110;-69
2023/01/09 08:37:35;;;;;;;;;23.50;22.50;;;;;5.28;98.94;97064.56;5005176;27;104216;-71
2023/01/09 08:40:02;;;;;;;;;23.75;20.00;;;;;5.40;98.93;97075.50;5007452;27;102035;-69
2023/01/09 08:48:00;;;;;;;;;20.00;17.50;;;;;5.72;97.58;97063.09;4997068;27;108662;-69
2023/01/09 08:50:27;;;;;;;;;19.75;18.00;;;;;5.81;96.86;97072.56;5009710;27;101932;-70
2023/01/09 08:52:54;;;;;;;;;19.25;17.00;;;;;5.89;96.80;97064.38;5000430;27;102309;-69
2023/01/09 08:55:21;;;;;;;;;14.00;11.75;;;;;5.91;97.44;97050.72;5008573;27;102373;-70
2023/01/09 08:57:50;;;;;;;;;23.75;21.25;;;;;6.03;95.49;97066.00;5009110;27;103924;-69
2023/01/09 09:00:18;;;;;;;;;21.25;20.75;;;;;6.14;95.07;97068.00;5011112;27;102172;-70
2023/01/09 09:02:50;;;;;;;;;19.00;18.00;;;;;6.22;95.06;97065.09;5001780;27;102218;-70
2023/01/09 09:05:18;;;;;;;;;22.00;21.25;;;;;6.33;94.00;97062.78;5004212;27;102090;-70
2023/01/09 09:07:49;;;;;;;;;18.50;16.75;;;;;6.35;94.28;97055.38;4995484;27;103980;-70
2023/01/09 09:10:17;;;;;;;;;19.00;18.00;;;;;6.49;94.11;97065.81;4995540;27;102182;-69
2023/01/09 09:12:46;;;;;;;;;17.25;16.25;;;;;6.58;93.40;97069.09;4998686;27;102178;-70
2023/01/09 09:15:22;;;;;;;;;14.75;12.50;;;;;6.66;92.69;97068.88;5004995;27;102223;-69
2023/01/09 09:17:52;;;;;;;;;19.75;16.50;;;;;6.72;92.61;97066.13;5001752;27;104251;-70
2023/01/09 09:20:24;;;;;;;;;17.75;13.00;;;;;6.79;90.63;97063.44;5005545;27;102020;-69
2023/01/09 09:22:51;;;;;;;;;21.25;16.75;;;;;6.85;91.20;97065.22;5009448;27;102107;-70
2023/01/09 09:25:19;;;;;;;;;18.75;14.75;;;;;6.88;90.96;97064.00;4997768;27;105519;-70
2023/01/09 09:27:46;;;;;;;;;22.50;18.50;;;;;6.86;90.02;97040.03;4994360;27;104280;-69
2023/01/09 09:30:17;;;;;;;;;19.25;15.50;;;;;6.98;90.92;97048.22;5004382;27;102314;-69
2023/01/09 09:32:44;;;;;;;;;13.50;12.75;;;;;7.02;90.42;97049.44;4994256;27;102401;-69
2023/01/09 09:35:11;;;;;;;;;10.25;10.25;;;;;7.09;89.55;97040.28;4997570;27;102325;-70
2023/01/09 09:37:40;;;;;;;;;17.50;14.50;;;;;7.11;89.26;97046.25;5008172;27;104011;-69
2023/01/09 09:40:19;;;;;;;;;14.25;12.25;;;;;7.14;89.09;97048.53;4998742;27;102246;-69
2023/01/09 09:46:24;;;;;;;;;23.25;19.50;;;;;7.14;89.48;97037.78;5002334;27;102385;-70
2023/01/09 09:48:55;;;;;;;;;15.25;8.00;;;;;7.18;88.78;97033.63;5007212;27;104039;-69
2023/01/09 09:51:25;;;;;;;;;18.00;10.50;;;;;7.18;88.04;97030.91;4999434;27;102329;-71
2023/01/09 09:54:01;;;;;;;;;13.00;11.75;;;;;7.21;88.73;97026.13;5000522;27;102161;-70
2023/01/09 09:56:35;;;;;;;;;17.75;16.50;;;;;7.25;88.31;97024.69;5008686;27;101979;-69
2023/01/09 09:59:10;;;;;;;;;15.75;14.00;;;;;7.02;88.90;96976.91;5001584;27;108708;-70
2023/01/09 10:01:45;;;;;;;;;20.25;19.25;;;;;7.22;88.63;96995.53;5007581;27;101827;-70
2023/01/09 10:04:19;;;;;;;;;14.00;13.00;;;;;7.42;89.14;97013.16;5008353;27;102124;-69
2023/01/09 10:06:55;;;;;;;;;14.50;13.00;;;;;7.50;88.80;97025.50;5013348;27;102275;-69
2023/01/09 10:09:53;;;;;;;;;14.75;13.25;;;;;7.59;88.85;97016.09;5005782;27;104481;-69
2023/01/09 10:12:37;;;;;;;;;20.75;15.00;;;;;7.68;87.12;97017.47;5002467;27;102149;-69
2023/01/09 10:15:24;;;;;;;;;15.25;14.00;;;;;7.76;86.65;97017.19;5009113;27;102253;-70
2023/01/09 10:18:14;;;;;;;;;11.75;11.75;;;;;7.85;86.40;97010.47;5002972;27;102085;-69
2023/01/09 10:20:53;;;;;;;;;17.75;13.75;;;;;7.85;87.77;97002.41;5001094;27;108604;-70
2023/01/09 10:23:35;;;;;;;;;14.25;10.75;;;;;7.92;87.35;97011.25;4999346;27;102048;-70
2023/01/09 10:26:06;;;;;;;;;16.50;10.75;;;;;7.97;87.61;97010.56;5001541;27;103038;-70
2023/01/09 10:29:04;;;;;;;;;11.75;11.00;;;;;8.01;87.42;97017.16;4999073;27;102307;-70
2023/01/09 10:31:38;;;;;;;;;14.00;10.25;;;;;7.98;87.19;96996.88;5002073;27;108870;-70
2023/01/09 10:34:23;;;;;;;;;10.00;9.25;;;;;8.07;87.75;97014.38;4998334;27;102263;-69
2023/01/09 10:37:27;;;;;;;;;15.50;13.00;;;;;8.04;87.96;97012.13;4996478;27;102165;-70
2023/01/09 10:40:02;;;;;;;;;12.00;9.25;;;;;8.06;88.51;96993.88;4990500;27;102027;-69
2023/01/09 10:42:38;;;;;;;;;9.00;8.50;;;;;8.19;87.80;97006.38;4978735;27;108348;-71
2023/01/09 10:45:14;;;;;;;;;15.00;10.25;;;;;8.25;87.23;97002.78;5009956;27;102128;-70
2023/01/09 10:47:42;;;;;;;;;13.50;11.25;;;;;8.28;88.34;96996.13;5006987;27;102167;-70
2023/01/09 10:50:20;;;;;;;;;13.25;12.25;;;;;8.33;88.71;96994.41;5012406;27;102339;-70
2023/01/09 10:52:52;;;;;;;;;14.50;11.75;;;;;8.47;87.80;96998.59;4996642;27;104054;-69
2023/01/09 10:55:26;;;;;;;;;12.50;9.75;;;;;8.52;87.69;97000.59;4998045;27;102184;-69
2023/01/09 10:58:00;;;;;;;;;10.75;9.00;;;;;8.61;87.28;96995.72;4998170;27;102006;-70
2023/01/09 11:00:27;;;;;;;;;8.00;7.50;;;;;8.70;87.22;96989.78;5013765;27;102088;-70
2023/01/09 11:02:54;;;;;;;;;4.00;3.75;;;;;8.73;87.51;96988.53;4998584;27;107918;-70
2023/01/09 11:05:24;;;;;;;;;9.25;8.00;;;;;8.72;86.73;97003.88;5003878;27;102396;-70
2023/01/09 11:08:03;;;;;;;;;3.00;3.00;;;;;8.74;86.67;97001.75;4998129;27;102230;-69
2023/01/09 11:10:57;;;;;;;;;4.25;4.25;;;;;8.74;85.70;96999.06;5003817;27;102480;-71
2023/01/09 11:13:33;;;;;;;;;3.25;3.25;;;;;8.78;87.01;97000.25;5000511;27;103959;-70
2023/01/09 11:16:04;;;;;;;;;4.50;4.50;;;;;8.82;87.01;96997.94;5003227;27;102883;-69
2023/01/09 11:18:34;;;;;;;;;3.00;3.00;;;;;8.82;86.53;97006.84;4997094;27;101888;-68
2023/01/09 11:21:26;;;;;;;;;3.75;3.00;;;;;8.84;86.24;96996.63;4998525;27;102516;-70
2023/01/09 11:23:55;;;;;;;;;3.00;3.00;;;;;8.67;87.04;96971.41;5000146;27;108980;-70
2023/01/09 11:26:25;;;;;;;;;1.25;1.25;;;;;8.92;87.17;96996.31;5012199;27;102008;-70
2023/01/09 11:29:06;;;;;;;;;0.25;0.00;;;;;8.94;88.24;96991.53;4996689;27;101882;-70
2023/01/09 11:31:34;;;;;;;;;2.00;2.00;;;;;8.79;86.67;96971.44;4999793;27;102759;-70
2023/01/09 11:34:01;;;;;;;;;1.25;1.00;;;;;8.86;88.26;96989.16;4997659;27;103945;-70
2023/01/09 11:36:29;;;;;;;;;1.00;1.00;;;;;8.95;89.01;97000.44;5007731;27;102037;-70
2023/01/09 11:39:01;;;;;;;;;0.25;0.25;;;;;8.89;89.39;96994.09;4996044;28;101851;-71
2023/01/09 11:41:34;;;;;;;;;2.00;1.00;;;;;8.86;89.72;97008.03;4999910;27;101925;-70
2023/01/09 11:44:03;;;;;;;;;2.00;1.00;;;;;8.85;89.95;97008.25;4991887;27;108870;-70